sensor_id;sensor_type;location;lat;lon;timestamp;P1;durP1;ratioP1;P2;durP2;ratioP2
20014;SDS011;61787;42.022;23.078;2023-07-20T00:00:58;12.85;;;2.90;;
20014;SDS011;61787;42.022;23.078;2023-07-20T00:02:17;10.55;;;2.83;;
20014;SDS011;61787;42.022;23.078;2023-07-20T00:03:19;15.48;;;2.85;;
20014;SDS011;61787;42.022;23.078;2023-07-20T00:04:24;13.80;;;2.85;;
20014;SDS011;61787;42.022;23.078;2023-07-20T00:05:26;16.02;;;3.10;;
20014;SDS011;61787;42.022;23.078;2023-07-20T00:06:27;8.25;;;2.53;;
20014;SDS011;61787;42.022;23.078;2023-07-20T00:07:29;13.15;;;2.58;;
20014;SDS011;61787;42.022;23.078;2023-07-20T00:08:31;15.23;;;2.80;;
20014;SDS011;61787;42.022;23.078;2023-07-20T00:09:32;8.82;;;2.97;;
20014;SDS011;61787;42.022;23.078;2023-07-20T00:10:34;14.23;;;2.80;;
20014;SDS011;61787;42.022;23.078;2023-07-20T00:11:36;10.80;;;2.80;;
20014;SDS011;61787;42.022;23.078;2023-07-20T00:12:41;10.43;;;3.30;;
20014;SDS011;61787;42.022;23.078;2023-07-20T00:13:49;13.15;;;3.42;;
20014;SDS011;61787;42.022;23.078;2023-07-20T00:14:50;12.73;;;3.00;;
20014;SDS011;61787;42.022;23.078;2023-07-20T00:15:55;14.40;;;3.03;;
20014;SDS011;61787;42.022;23.078;2023-07-20T00:16:56;13.48;;;3.47;;
20014;SDS011;61787;42.022;23.078;2023-07-20T00:17:58;10.32;;;3.13;;
20014;SDS011;61787;42.022;23.078;2023-07-20T00:19:00;16.40;;;3.55;;
20014;SDS011;61787;42.022;23.078;2023-07-20T00:20:02;11.18;;;3.28;;
20014;SDS011;61787;42.022;23.078;2023-07-20T00:21:06;11.65;;;3.25;;
20014;SDS011;61787;42.022;23.078;2023-07-20T00:22:08;10.60;;;2.67;;
20014;SDS011;61787;42.022;23.078;2023-07-20T00:23:10;8.52;;;3.08;;
20014;SDS011;61787;42.022;23.078;2023-07-20T00:24:12;10.93;;;2.83;;
20014;SDS011;61787;42.022;23.078;2023-07-20T00:25:14;10.10;;;2.70;;
20014;SDS011;61787;42.022;23.078;2023-07-20T00:26:15;11.02;;;2.92;;
20014;SDS011;61787;42.022;23.078;2023-07-20T00:27:17;14.30;;;2.67;;
20014;SDS011;61787;42.022;23.078;2023-07-20T00:28:19;8.63;;;2.50;;
20014;SDS011;61787;42.022;23.078;2023-07-20T00:29:21;8.57;;;2.38;;
20014;SDS011;61787;42.022;23.078;2023-07-20T00:30:23;19.00;;;3.42;;
20014;SDS011;61787;42.022;23.078;2023-07-20T00:31:24;14.13;;;2.63;;
20014;SDS011;61787;42.022;23.078;2023-07-20T00:32:26;12.48;;;2.53;;
20014;SDS011;61787;42.022;23.078;2023-07-20T00:33:28;15.20;;;3.03;;
20014;SDS011;61787;42.022;23.078;2023-07-20T00:34:30;12.30;;;2.88;;
20014;SDS011;61787;42.022;23.078;2023-07-20T00:35:32;15.52;;;3.33;;
20014;SDS011;61787;42.022;23.078;2023-07-20T00:36:34;8.80;;;3.08;;
20014;SDS011;61787;42.022;23.078;2023-07-20T00:37:36;13.10;;;2.90;;
20014;SDS011;61787;42.022;23.078;2023-07-20T00:38:38;12.95;;;2.88;;
20014;SDS011;61787;42.022;23.078;2023-07-20T00:39:40;10.98;;;2.92;;
20014;SDS011;61787;42.022;23.078;2023-07-20T00:40:42;12.02;;;2.67;;
20014;SDS011;61787;42.022;23.078;2023-07-20T00:41:43;16.10;;;3.42;;
20014;SDS011;61787;42.022;23.078;2023-07-20T00:42:45;12.82;;;3.42;;
20014;SDS011;61787;42.022;23.078;2023-07-20T00:43:47;15.50;;;3.15;;
20014;SDS011;61787;42.022;23.078;2023-07-20T00:44:48;11.07;;;3.15;;
20014;SDS011;61787;42.022;23.078;2023-07-20T00:45:50;13.15;;;3.50;;
20014;SDS011;61787;42.022;23.078;2023-07-20T00:46:52;10.48;;;3.03;;
20014;SDS011;61787;42.022;23.078;2023-07-20T00:47:54;12.20;;;2.88;;
20014;SDS011;61787;42.022;23.078;2023-07-20T00:48:56;13.85;;;3.53;;
20014;SDS011;61787;42.022;23.078;2023-07-20T00:49:57;13.93;;;3.50;;
20014;SDS011;61787;42.022;23.078;2023-07-20T00:50:59;9.60;;;3.35;;
20014;SDS011;61787;42.022;23.078;2023-07-20T00:52:03;13.98;;;3.78;;
20014;SDS011;61787;42.022;23.078;2023-07-20T00:53:07;16.27;;;3.00;;
20014;SDS011;61787;42.022;23.078;2023-07-20T00:54:10;14.85;;;3.42;;
20014;SDS011;61787;42.022;23.078;2023-07-20T00:55:11;12.93;;;3.33;;
20014;SDS011;61787;42.022;23.078;2023-07-20T00:56:13;17.42;;;3.40;;
20014;SDS011;61787;42.022;23.078;2023-07-20T00:57:16;18.10;;;3.88;;
20014;SDS011;61787;42.022;23.078;2023-07-20T00:58:19;13.25;;;3.50;;
20014;SDS011;61787;42.022;23.078;2023-07-20T00:59:21;13.77;;;3.13;;
20014;SDS011;61787;42.022;23.078;2023-07-20T01:00:23;10.35;;;3.33;;
20014;SDS011;61787;42.022;23.078;2023-07-20T01:01:25;16.05;;;3.28;;
20014;SDS011;61787;42.022;23.078;2023-07-20T01:02:26;14.77;;;3.38;;
20014;SDS011;61787;42.022;23.078;2023-07-20T01:03:28;9.70;;;3.28;;
20014;SDS011;61787;42.022;23.078;2023-07-20T01:04:30;16.10;;;3.38;;
20014;SDS011;61787;42.022;23.078;2023-07-20T01:05:47;14.20;;;3.30;;
20014;SDS011;61787;42.022;23.078;2023-07-20T01:07:12;12.20;;;3.42;;
20014;SDS011;61787;42.022;23.078;2023-07-20T01:08:24;21.40;;;3.47;;
20014;SDS011;61787;42.022;23.078;2023-07-20T01:09:45;12.40;;;2.95;;
20014;SDS011;61787;42.022;23.078;2023-07-20T01:10:59;11.00;;;2.88;;
20014;SDS011;61787;42.022;23.078;2023-07-20T01:12:13;14.15;;;3.63;;
20014;SDS011;61787;42.022;23.078;2023-07-20T01:13:32;11.60;;;3.05;;
20014;SDS011;61787;42.022;23.078;2023-07-20T01:14:34;14.07;;;3.20;;
20014;SDS011;61787;42.022;23.078;2023-07-20T01:15:36;10.75;;;3.38;;
20014;SDS011;61787;42.022;23.078;2023-07-20T01:16:37;15.60;;;3.60;;
20014;SDS011;61787;42.022;23.078;2023-07-20T01:17:39;12.73;;;3.72;;
20014;SDS011;61787;42.022;23.078;2023-07-20T01:18:41;10.27;;;3.20;;
20014;SDS011;61787;42.022;23.078;2023-07-20T01:19:43;12.38;;;3.47;;
20014;SDS011;61787;42.022;23.078;2023-07-20T01:20:44;14.40;;;3.13;;
20014;SDS011;61787;42.022;23.078;2023-07-20T01:21:57;12.00;;;3.28;;
20014;SDS011;61787;42.022;23.078;2023-07-20T01:24:31;13.60;;;3.17;;
20014;SDS011;61787;42.022;23.078;2023-07-20T01:26:18;9.25;;;2.80;;
20014;SDS011;61787;42.022;23.078;2023-07-20T01:31:52;10.50;;;3.35;;
20014;SDS011;61787;42.022;23.078;2023-07-20T01:32:56;11.85;;;3.03;;
20014;SDS011;61787;42.022;23.078;2023-07-20T01:34:00;12.57;;;3.45;;
20014;SDS011;61787;42.022;23.078;2023-07-20T01:35:03;15.68;;;3.33;;
20014;SDS011;61787;42.022;23.078;2023-07-20T01:36:06;11.93;;;3.38;;
20014;SDS011;61787;42.022;23.078;2023-07-20T01:37:09;8.85;;;3.17;;
20014;SDS011;61787;42.022;23.078;2023-07-20T01:38:12;11.43;;;3.30;;
20014;SDS011;61787;42.022;23.078;2023-07-20T01:39:15;10.80;;;3.65;;
20014;SDS011;61787;42.022;23.078;2023-07-20T01:40:19;12.43;;;3.55;;
20014;SDS011;61787;42.022;23.078;2023-07-20T01:41:23;12.82;;;3.42;;
20014;SDS011;61787;42.022;23.078;2023-07-20T01:42:25;14.25;;;5.03;;
20014;SDS011;61787;42.022;23.078;2023-07-20T01:43:27;9.57;;;3.08;;
20014;SDS011;61787;42.022;23.078;2023-07-20T01:44:29;13.93;;;4.15;;
20014;SDS011;61787;42.022;23.078;2023-07-20T01:45:30;15.43;;;4.05;;
20014;SDS011;61787;42.022;23.078;2023-07-20T01:46:32;15.43;;;4.53;;
20014;SDS011;61787;42.022;23.078;2023-07-20T01:47:34;11.32;;;4.32;;
20014;SDS011;61787;42.022;23.078;2023-07-20T01:48:35;10.93;;;4.28;;
20014;SDS011;61787;42.022;23.078;2023-07-20T01:49:37;14.32;;;4.22;;
20014;SDS011;61787;42.022;23.078;2023-07-20T01:50:39;9.65;;;4.22;;
20014;SDS011;61787;42.022;23.078;2023-07-20T01:51:40;12.98;;;4.78;;
20014;SDS011;61787;42.022;23.078;2023-07-20T01:52:42;14.45;;;4.80;;
20014;SDS011;61787;42.022;23.078;2023-07-20T01:53:43;10.43;;;4.43;;
20014;SDS011;61787;42.022;23.078;2023-07-20T01:54:45;15.50;;;4.55;;
20014;SDS011;61787;42.022;23.078;2023-07-20T01:55:47;14.75;;;4.18;;
20014;SDS011;61787;42.022;23.078;2023-07-20T01:56:48;12.10;;;4.07;;
20014;SDS011;61787;42.022;23.078;2023-07-20T01:57:50;11.15;;;3.75;;
20014;SDS011;61787;42.022;23.078;2023-07-20T01:58:51;10.30;;;3.63;;
20014;SDS011;61787;42.022;23.078;2023-07-20T01:59:53;12.63;;;4.22;;
20014;SDS011;61787;42.022;23.078;2023-07-20T02:00:55;6.20;;;3.30;;
20014;SDS011;61787;42.022;23.078;2023-07-20T02:01:57;15.73;;;4.40;;
20014;SDS011;61787;42.022;23.078;2023-07-20T02:02:59;10.48;;;3.92;;
20014;SDS011;61787;42.022;23.078;2023-07-20T02:04:00;7.95;;;3.85;;
20014;SDS011;61787;42.022;23.078;2023-07-20T02:05:02;11.73;;;3.55;;
20014;SDS011;61787;42.022;23.078;2023-07-20T02:06:04;14.40;;;4.00;;
20014;SDS011;61787;42.022;23.078;2023-07-20T02:07:06;11.27;;;3.95;;
20014;SDS011;61787;42.022;23.078;2023-07-20T02:08:07;11.32;;;3.60;;
20014;SDS011;61787;42.022;23.078;2023-07-20T02:09:09;10.95;;;3.78;;
20014;SDS011;61787;42.022;23.078;2023-07-20T02:10:10;14.65;;;4.07;;
20014;SDS011;61787;42.022;23.078;2023-07-20T02:11:12;14.30;;;4.70;;
20014;SDS011;61787;42.022;23.078;2023-07-20T02:12:14;12.48;;;4.45;;
20014;SDS011;61787;42.022;23.078;2023-07-20T02:13:15;11.02;;;4.03;;
20014;SDS011;61787;42.022;23.078;2023-07-20T02:14:17;8.85;;;3.67;;
20014;SDS011;61787;42.022;23.078;2023-07-20T02:15:19;14.88;;;4.07;;
20014;SDS011;61787;42.022;23.078;2023-07-20T02:16:20;12.70;;;4.03;;
20014;SDS011;61787;42.022;23.078;2023-07-20T02:17:23;13.68;;;4.47;;
20014;SDS011;61787;42.022;23.078;2023-07-20T02:18:24;18.98;;;4.72;;
20014;SDS011;61787;42.022;23.078;2023-07-20T02:19:26;13.52;;;4.38;;
20014;SDS011;61787;42.022;23.078;2023-07-20T02:20:28;12.68;;;4.68;;
20014;SDS011;61787;42.022;23.078;2023-07-20T02:21:30;12.32;;;4.40;;
20014;SDS011;61787;42.022;23.078;2023-07-20T02:22:31;12.95;;;4.60;;
20014;SDS011;61787;42.022;23.078;2023-07-20T02:23:33;13.90;;;4.20;;
20014;SDS011;61787;42.022;23.078;2023-07-20T02:24:35;12.63;;;4.35;;
20014;SDS011;61787;42.022;23.078;2023-07-20T02:25:37;12.50;;;4.80;;
20014;SDS011;61787;42.022;23.078;2023-07-20T02:26:39;8.23;;;4.57;;
20014;SDS011;61787;42.022;23.078;2023-07-20T02:27:41;17.30;;;5.03;;
20014;SDS011;61787;42.022;23.078;2023-07-20T02:28:42;12.38;;;4.57;;
20014;SDS011;61787;42.022;23.078;2023-07-20T02:29:44;11.63;;;4.50;;
20014;SDS011;61787;42.022;23.078;2023-07-20T02:30:45;14.65;;;4.38;;
20014;SDS011;61787;42.022;23.078;2023-07-20T02:31:47;12.55;;;4.70;;
20014;SDS011;61787;42.022;23.078;2023-07-20T02:32:49;14.13;;;4.20;;
20014;SDS011;61787;42.022;23.078;2023-07-20T02:33:51;13.15;;;4.80;;
20014;SDS011;61787;42.022;23.078;2023-07-20T02:34:52;16.30;;;4.68;;
20014;SDS011;61787;42.022;23.078;2023-07-20T02:35:54;18.35;;;5.45;;
20014;SDS011;61787;42.022;23.078;2023-07-20T02:36:56;13.88;;;5.53;;
20014;SDS011;61787;42.022;23.078;2023-07-20T02:37:59;13.30;;;4.75;;
20014;SDS011;61787;42.022;23.078;2023-07-20T02:39:01;14.00;;;5.38;;
20014;SDS011;61787;42.022;23.078;2023-07-20T02:40:06;12.07;;;4.82;;
20014;SDS011;61787;42.022;23.078;2023-07-20T02:41:08;10.32;;;4.75;;
20014;SDS011;61787;42.022;23.078;2023-07-20T02:42:10;14.10;;;5.38;;
20014;SDS011;61787;42.022;23.078;2023-07-20T02:43:12;15.15;;;5.00;;
20014;SDS011;61787;42.022;23.078;2023-07-20T02:44:13;16.65;;;4.85;;
20014;SDS011;61787;42.022;23.078;2023-07-20T02:45:16;12.40;;;4.90;;
20014;SDS011;61787;42.022;23.078;2023-07-20T02:46:17;16.95;;;4.82;;
20014;SDS011;61787;42.022;23.078;2023-07-20T02:47:19;15.40;;;5.32;;
20014;SDS011;61787;42.022;23.078;2023-07-20T02:48:21;13.15;;;4.90;;
20014;SDS011;61787;42.022;23.078;2023-07-20T02:49:22;12.50;;;5.25;;
20014;SDS011;61787;42.022;23.078;2023-07-20T02:50:24;13.82;;;5.05;;
20014;SDS011;61787;42.022;23.078;2023-07-20T02:51:26;16.25;;;5.25;;
20014;SDS011;61787;42.022;23.078;2023-07-20T02:52:27;11.18;;;5.15;;
20014;SDS011;61787;42.022;23.078;2023-07-20T02:53:30;14.23;;;5.18;;
20014;SDS011;61787;42.022;23.078;2023-07-20T02:54:32;9.48;;;4.95;;
20014;SDS011;61787;42.022;23.078;2023-07-20T02:55:33;12.98;;;4.82;;
20014;SDS011;61787;42.022;23.078;2023-07-20T02:56:35;16.73;;;5.70;;
20014;SDS011;61787;42.022;23.078;2023-07-20T02:57:37;11.32;;;4.90;;
20014;SDS011;61787;42.022;23.078;2023-07-20T02:58:40;9.85;;;5.00;;
20014;SDS011;61787;42.022;23.078;2023-07-20T02:59:44;13.43;;;5.95;;
20014;SDS011;61787;42.022;23.078;2023-07-20T03:00:46;9.25;;;4.88;;
20014;SDS011;61787;42.022;23.078;2023-07-20T03:01:47;14.02;;;5.10;;
20014;SDS011;61787;42.022;23.078;2023-07-20T03:02:50;10.88;;;5.15;;
20014;SDS011;61787;42.022;23.078;2023-07-20T03:03:57;15.30;;;5.05;;
20014;SDS011;61787;42.022;23.078;2023-07-20T03:04:59;11.68;;;4.90;;
20014;SDS011;61787;42.022;23.078;2023-07-20T03:06:02;14.48;;;5.30;;
20014;SDS011;61787;42.022;23.078;2023-07-20T03:07:04;11.73;;;5.18;;
20014;SDS011;61787;42.022;23.078;2023-07-20T03:08:06;12.82;;;5.40;;
20014;SDS011;61787;42.022;23.078;2023-07-20T03:09:08;13.30;;;5.25;;
20014;SDS011;61787;42.022;23.078;2023-07-20T03:10:10;14.32;;;5.30;;
20014;SDS011;61787;42.022;23.078;2023-07-20T03:11:13;13.93;;;5.32;;
20014;SDS011;61787;42.022;23.078;2023-07-20T03:12:16;12.13;;;5.60;;
20014;SDS011;61787;42.022;23.078;2023-07-20T03:13:18;16.05;;;5.75;;
20014;SDS011;61787;42.022;23.078;2023-07-20T03:14:19;9.90;;;5.32;;
20014;SDS011;61787;42.022;23.078;2023-07-20T03:15:21;14.25;;;5.68;;
20014;SDS011;61787;42.022;23.078;2023-07-20T03:16:23;15.88;;;5.28;;
20014;SDS011;61787;42.022;23.078;2023-07-20T03:17:26;13.80;;;5.88;;
20014;SDS011;61787;42.022;23.078;2023-07-20T03:18:28;18.02;;;5.78;;
20014;SDS011;61787;42.022;23.078;2023-07-20T03:19:30;11.82;;;5.70;;
20014;SDS011;61787;42.022;23.078;2023-07-20T03:20:31;12.93;;;6.00;;
20014;SDS011;61787;42.022;23.078;2023-07-20T03:21:33;19.02;;;5.93;;
20014;SDS011;61787;42.022;23.078;2023-07-20T03:22:35;10.65;;;5.35;;
20014;SDS011;61787;42.022;23.078;2023-07-20T03:23:37;28.58;;;7.57;;
20014;SDS011;61787;42.022;23.078;2023-07-20T03:24:40;28.52;;;6.97;;
20014;SDS011;61787;42.022;23.078;2023-07-20T03:25:42;27.60;;;7.88;;
20014;SDS011;61787;42.022;23.078;2023-07-20T03:26:43;42.97;;;7.95;;
20014;SDS011;61787;42.022;23.078;2023-07-20T03:27:45;16.00;;;6.80;;
20014;SDS011;61787;42.022;23.078;2023-07-20T03:28:47;21.42;;;6.45;;
20014;SDS011;61787;42.022;23.078;2023-07-20T03:29:50;17.55;;;5.68;;
20014;SDS011;61787;42.022;23.078;2023-07-20T03:30:57;19.60;;;5.18;;
20014;SDS011;61787;42.022;23.078;2023-07-20T03:32:00;22.98;;;6.35;;
20014;SDS011;61787;42.022;23.078;2023-07-20T03:33:01;30.70;;;7.80;;
20014;SDS011;61787;42.022;23.078;2023-07-20T03:34:04;34.00;;;6.97;;
20014;SDS011;61787;42.022;23.078;2023-07-20T03:35:06;92.63;;;12.38;;
20014;SDS011;61787;42.022;23.078;2023-07-20T03:36:08;39.17;;;8.85;;
20014;SDS011;61787;42.022;23.078;2023-07-20T03:37:12;30.83;;;6.35;;
20014;SDS011;61787;42.022;23.078;2023-07-20T03:38:14;18.50;;;6.47;;
20014;SDS011;61787;42.022;23.078;2023-07-20T03:39:16;44.00;;;8.30;;
20014;SDS011;61787;42.022;23.078;2023-07-20T03:40:18;25.70;;;7.65;;
20014;SDS011;61787;42.022;23.078;2023-07-20T03:41:19;24.92;;;6.57;;
20014;SDS011;61787;42.022;23.078;2023-07-20T03:42:23;13.25;;;6.13;;
20014;SDS011;61787;42.022;23.078;2023-07-20T03:43:25;25.85;;;6.50;;
20014;SDS011;61787;42.022;23.078;2023-07-20T03:44:28;18.98;;;6.50;;
20014;SDS011;61787;42.022;23.078;2023-07-20T03:45:30;35.75;;;7.25;;
20014;SDS011;61787;42.022;23.078;2023-07-20T03:46:32;24.48;;;7.00;;
20014;SDS011;61787;42.022;23.078;2023-07-20T03:47:35;15.90;;;5.80;;
20014;SDS011;61787;42.022;23.078;2023-07-20T03:48:37;17.88;;;6.38;;
20014;SDS011;61787;42.022;23.078;2023-07-20T03:49:39;20.63;;;6.53;;
20014;SDS011;61787;42.022;23.078;2023-07-20T03:50:40;24.55;;;6.30;;
20014;SDS011;61787;42.022;23.078;2023-07-20T03:51:42;32.85;;;7.30;;
20014;SDS011;61787;42.022;23.078;2023-07-20T03:52:44;43.40;;;7.78;;
20014;SDS011;61787;42.022;23.078;2023-07-20T03:53:45;16.60;;;6.53;;
20014;SDS011;61787;42.022;23.078;2023-07-20T03:54:47;28.10;;;7.38;;
20014;SDS011;61787;42.022;23.078;2023-07-20T03:55:49;39.25;;;8.90;;
20014;SDS011;61787;42.022;23.078;2023-07-20T03:56:52;30.20;;;6.95;;
20014;SDS011;61787;42.022;23.078;2023-07-20T03:57:53;18.20;;;6.57;;
20014;SDS011;61787;42.022;23.078;2023-07-20T03:58:55;13.23;;;5.78;;
20014;SDS011;61787;42.022;23.078;2023-07-20T03:59:57;18.13;;;6.22;;
20014;SDS011;61787;42.022;23.078;2023-07-20T04:00:58;77.15;;;11.35;;
20014;SDS011;61787;42.022;23.078;2023-07-20T04:02:00;33.42;;;7.10;;
20014;SDS011;61787;42.022;23.078;2023-07-20T04:03:02;12.30;;;6.25;;
20014;SDS011;61787;42.022;23.078;2023-07-20T04:04:05;17.58;;;6.90;;
20014;SDS011;61787;42.022;23.078;2023-07-20T04:05:08;12.52;;;6.32;;
20014;SDS011;61787;42.022;23.078;2023-07-20T04:06:10;9.95;;;6.25;;
20014;SDS011;61787;42.022;23.078;2023-07-20T04:07:12;21.45;;;5.50;;
20014;SDS011;61787;42.022;23.078;2023-07-20T04:08:13;14.27;;;5.20;;
20014;SDS011;61787;42.022;23.078;2023-07-20T04:09:15;14.45;;;5.47;;
20014;SDS011;61787;42.022;23.078;2023-07-20T04:10:17;19.15;;;5.88;;
20014;SDS011;61787;42.022;23.078;2023-07-20T04:11:19;18.98;;;5.50;;
20014;SDS011;61787;42.022;23.078;2023-07-20T04:12:21;24.27;;;6.03;;
20014;SDS011;61787;42.022;23.078;2023-07-20T04:13:22;14.55;;;4.35;;
20014;SDS011;61787;42.022;23.078;2023-07-20T04:14:24;14.48;;;4.63;;
20014;SDS011;61787;42.022;23.078;2023-07-20T04:15:26;17.95;;;5.20;;
20014;SDS011;61787;42.022;23.078;2023-07-20T04:16:28;10.98;;;4.40;;
20014;SDS011;61787;42.022;23.078;2023-07-20T04:17:29;10.68;;;4.70;;
20014;SDS011;61787;42.022;23.078;2023-07-20T04:18:31;16.55;;;4.40;;
20014;SDS011;61787;42.022;23.078;2023-07-20T04:19:33;11.15;;;4.63;;
20014;SDS011;61787;42.022;23.078;2023-07-20T04:20:34;10.00;;;4.78;;
20014;SDS011;61787;42.022;23.078;2023-07-20T04:21:39;11.00;;;4.43;;
20014;SDS011;61787;42.022;23.078;2023-07-20T04:22:42;15.57;;;4.57;;
20014;SDS011;61787;42.022;23.078;2023-07-20T04:23:43;19.13;;;4.38;;
20014;SDS011;61787;42.022;23.078;2023-07-20T04:24:45;13.85;;;4.55;;
20014;SDS011;61787;42.022;23.078;2023-07-20T04:25:47;12.05;;;4.40;;
20014;SDS011;61787;42.022;23.078;2023-07-20T04:26:49;12.10;;;4.60;;
20014;SDS011;61787;42.022;23.078;2023-07-20T04:27:51;14.98;;;5.30;;
20014;SDS011;61787;42.022;23.078;2023-07-20T04:28:53;16.85;;;5.63;;
20014;SDS011;61787;42.022;23.078;2023-07-20T04:29:54;11.90;;;6.80;;
20014;SDS011;61787;42.022;23.078;2023-07-20T04:31:08;22.17;;;7.43;;
20014;SDS011;61787;42.022;23.078;2023-07-20T04:32:11;16.63;;;6.63;;
20014;SDS011;61787;42.022;23.078;2023-07-20T04:33:13;20.40;;;6.20;;
20014;SDS011;61787;42.022;23.078;2023-07-20T04:34:15;13.52;;;5.75;;
20014;SDS011;61787;42.022;23.078;2023-07-20T04:36:48;14.38;;;5.80;;
20014;SDS011;61787;42.022;23.078;2023-07-20T04:37:49;23.90;;;6.95;;
20014;SDS011;61787;42.022;23.078;2023-07-20T04:38:51;13.90;;;6.00;;
20014;SDS011;61787;42.022;23.078;2023-07-20T04:39:53;24.67;;;5.90;;
20014;SDS011;61787;42.022;23.078;2023-07-20T04:40:54;21.52;;;5.65;;
20014;SDS011;61787;42.022;23.078;2023-07-20T04:41:56;19.23;;;5.53;;
20014;SDS011;61787;42.022;23.078;2023-07-20T04:42:58;22.02;;;6.30;;
20014;SDS011;61787;42.022;23.078;2023-07-20T04:44:00;21.40;;;6.25;;
20014;SDS011;61787;42.022;23.078;2023-07-20T04:45:01;18.35;;;6.03;;
20014;SDS011;61787;42.022;23.078;2023-07-20T04:46:03;14.07;;;5.10;;
20014;SDS011;61787;42.022;23.078;2023-07-20T04:47:05;12.85;;;5.65;;
20014;SDS011;61787;42.022;23.078;2023-07-20T04:48:08;14.00;;;5.90;;
20014;SDS011;61787;42.022;23.078;2023-07-20T04:49:14;13.93;;;5.43;;
20014;SDS011;61787;42.022;23.078;2023-07-20T04:50:16;15.27;;;5.47;;
20014;SDS011;61787;42.022;23.078;2023-07-20T04:51:18;17.35;;;5.22;;
20014;SDS011;61787;42.022;23.078;2023-07-20T04:52:22;14.35;;;5.60;;
20014;SDS011;61787;42.022;23.078;2023-07-20T04:53:37;12.68;;;5.80;;
20014;SDS011;61787;42.022;23.078;2023-07-20T04:54:39;17.13;;;5.78;;
20014;SDS011;61787;42.022;23.078;2023-07-20T04:55:46;19.52;;;5.55;;
20014;SDS011;61787;42.022;23.078;2023-07-20T04:56:52;17.00;;;5.28;;
20014;SDS011;61787;42.022;23.078;2023-07-20T04:57:54;26.85;;;5.05;;
20014;SDS011;61787;42.022;23.078;2023-07-20T04:58:56;10.45;;;5.07;;
20014;SDS011;61787;42.022;23.078;2023-07-20T04:59:58;17.60;;;6.03;;
20014;SDS011;61787;42.022;23.078;2023-07-20T05:01:00;18.73;;;5.72;;
20014;SDS011;61787;42.022;23.078;2023-07-20T05:02:01;14.40;;;5.22;;
20014;SDS011;61787;42.022;23.078;2023-07-20T05:03:03;14.30;;;5.78;;
20014;SDS011;61787;42.022;23.078;2023-07-20T05:04:07;17.15;;;5.85;;
20014;SDS011;61787;42.022;23.078;2023-07-20T05:05:09;17.73;;;5.40;;
20014;SDS011;61787;42.022;23.078;2023-07-20T05:06:11;14.45;;;5.88;;
20014;SDS011;61787;42.022;23.078;2023-07-20T05:07:13;11.90;;;6.00;;
20014;SDS011;61787;42.022;23.078;2023-07-20T05:08:15;14.82;;;5.40;;
20014;SDS011;61787;42.022;23.078;2023-07-20T05:09:17;13.63;;;5.35;;
20014;SDS011;61787;42.022;23.078;2023-07-20T05:10:19;18.70;;;5.40;;
20014;SDS011;61787;42.022;23.078;2023-07-20T05:11:24;12.93;;;5.82;;
20014;SDS011;61787;42.022;23.078;2023-07-20T05:12:25;11.85;;;5.63;;
20014;SDS011;61787;42.022;23.078;2023-07-20T05:13:27;16.33;;;6.28;;
20014;SDS011;61787;42.022;23.078;2023-07-20T05:14:29;14.27;;;5.80;;
20014;SDS011;61787;42.022;23.078;2023-07-20T05:15:32;19.48;;;5.60;;
20014;SDS011;61787;42.022;23.078;2023-07-20T05:16:35;19.52;;;6.18;;
20014;SDS011;61787;42.022;23.078;2023-07-20T05:17:37;18.58;;;5.57;;
20014;SDS011;61787;42.022;23.078;2023-07-20T05:18:39;15.68;;;5.43;;
20014;SDS011;61787;42.022;23.078;2023-07-20T05:19:40;14.93;;;5.55;;
20014;SDS011;61787;42.022;23.078;2023-07-20T05:20:45;13.43;;;5.65;;
20014;SDS011;61787;42.022;23.078;2023-07-20T05:21:51;17.02;;;6.10;;
20014;SDS011;61787;42.022;23.078;2023-07-20T05:22:52;12.13;;;6.50;;
20014;SDS011;61787;42.022;23.078;2023-07-20T05:23:54;11.90;;;5.53;;
20014;SDS011;61787;42.022;23.078;2023-07-20T05:24:56;16.65;;;5.82;;
20014;SDS011;61787;42.022;23.078;2023-07-20T05:25:58;13.85;;;6.10;;
20014;SDS011;61787;42.022;23.078;2023-07-20T05:27:00;15.68;;;6.18;;
20014;SDS011;61787;42.022;23.078;2023-07-20T05:28:02;16.90;;;6.40;;
20014;SDS011;61787;42.022;23.078;2023-07-20T05:29:03;16.08;;;6.10;;
20014;SDS011;61787;42.022;23.078;2023-07-20T05:30:05;13.57;;;6.05;;
20014;SDS011;61787;42.022;23.078;2023-07-20T05:31:11;13.55;;;6.22;;
20014;SDS011;61787;42.022;23.078;2023-07-20T05:32:15;15.05;;;6.35;;
20014;SDS011;61787;42.022;23.078;2023-07-20T05:33:18;14.60;;;5.75;;
20014;SDS011;61787;42.022;23.078;2023-07-20T05:34:20;16.17;;;5.65;;
20014;SDS011;61787;42.022;23.078;2023-07-20T05:35:22;10.15;;;5.65;;
20014;SDS011;61787;42.022;23.078;2023-07-20T05:36:24;17.85;;;6.13;;
20014;SDS011;61787;42.022;23.078;2023-07-20T05:37:26;19.65;;;6.15;;
20014;SDS011;61787;42.022;23.078;2023-07-20T05:38:27;12.90;;;6.32;;
20014;SDS011;61787;42.022;23.078;2023-07-20T05:39:29;13.70;;;6.18;;
20014;SDS011;61787;42.022;23.078;2023-07-20T05:40:31;10.10;;;6.10;;
20014;SDS011;61787;42.022;23.078;2023-07-20T05:41:32;18.10;;;5.90;;
20014;SDS011;61787;42.022;23.078;2023-07-20T05:42:34;12.48;;;6.47;;
20014;SDS011;61787;42.022;23.078;2023-07-20T05:43:36;14.75;;;5.53;;
20014;SDS011;61787;42.022;23.078;2023-07-20T05:44:37;15.48;;;5.88;;
20014;SDS011;61787;42.022;23.078;2023-07-20T05:45:42;21.83;;;6.18;;
20014;SDS011;61787;42.022;23.078;2023-07-20T05:46:44;11.60;;;5.50;;
20014;SDS011;61787;42.022;23.078;2023-07-20T05:47:57;12.73;;;5.65;;
20014;SDS011;61787;42.022;23.078;2023-07-20T05:48:59;11.63;;;5.72;;
20014;SDS011;61787;42.022;23.078;2023-07-20T05:50:01;16.73;;;5.82;;
20014;SDS011;61787;42.022;23.078;2023-07-20T05:51:03;15.00;;;5.15;;
20014;SDS011;61787;42.022;23.078;2023-07-20T05:52:05;13.82;;;5.32;;
20014;SDS011;61787;42.022;23.078;2023-07-20T05:53:07;14.13;;;5.75;;
20014;SDS011;61787;42.022;23.078;2023-07-20T05:54:08;15.23;;;4.57;;
20014;SDS011;61787;42.022;23.078;2023-07-20T05:55:10;13.13;;;5.20;;
20014;SDS011;61787;42.022;23.078;2023-07-20T05:56:13;12.57;;;5.15;;
20014;SDS011;61787;42.022;23.078;2023-07-20T05:57:15;12.90;;;5.25;;
20014;SDS011;61787;42.022;23.078;2023-07-20T05:58:16;11.48;;;5.13;;
20014;SDS011;61787;42.022;23.078;2023-07-20T05:59:18;13.45;;;5.53;;
20014;SDS011;61787;42.022;23.078;2023-07-20T06:00:25;14.68;;;5.68;;
20014;SDS011;61787;42.022;23.078;2023-07-20T06:01:27;12.82;;;5.15;;
20014;SDS011;61787;42.022;23.078;2023-07-20T06:02:29;14.30;;;5.65;;
20014;SDS011;61787;42.022;23.078;2023-07-20T06:03:31;11.48;;;5.50;;
20014;SDS011;61787;42.022;23.078;2023-07-20T06:04:35;11.35;;;5.50;;
20014;SDS011;61787;42.022;23.078;2023-07-20T06:05:37;14.73;;;4.95;;
20014;SDS011;61787;42.022;23.078;2023-07-20T06:06:41;14.65;;;4.80;;
20014;SDS011;61787;42.022;23.078;2023-07-20T06:07:43;11.50;;;4.82;;
20014;SDS011;61787;42.022;23.078;2023-07-20T06:08:45;11.13;;;4.65;;
20014;SDS011;61787;42.022;23.078;2023-07-20T06:09:47;13.85;;;5.28;;
20014;SDS011;61787;42.022;23.078;2023-07-20T06:10:52;17.23;;;5.32;;
20014;SDS011;61787;42.022;23.078;2023-07-20T06:11:53;12.73;;;4.70;;
20014;SDS011;61787;42.022;23.078;2023-07-20T06:12:56;8.27;;;4.55;;
20014;SDS011;61787;42.022;23.078;2023-07-20T06:13:57;20.83;;;4.78;;
20014;SDS011;61787;42.022;23.078;2023-07-20T06:15:03;13.10;;;4.85;;
20014;SDS011;61787;42.022;23.078;2023-07-20T06:16:05;22.25;;;5.20;;